Flying Lady — WDJ7765 — position and weather

sailwx.info

Track history (hours):
 
Tides and Currents Weather Stations Pressure Air Temp Water Temp Dewpoint Dewpoint Depression Visibility Wind Speed Wind Dir Waves Ship Positions

Flying Lady

Owner: Recker, William J, Captiva, FL. More information available from US FCC via Universal Licensing System and Coast Guard Vessel Documentation Center.

Last reported at 2018-Jan-09 16:54 UTC. Time now 2018-Feb-24 22:11 UTC.
Position N 26°44' W 080°03'.
Warning: this ship's position is 46 days out of date.

Length 20 m.

Type: Pleasure craft. MMSI: 368009910.

Date/timePositionNaut miles runAvg speedWind from/ knotsBaromVisibWave heightAir tempDewpointWater temp
2018-Jan-09 16:54N 26°44' W 080°03'1 0.6
2018-Jan-09 14:52N 26°43' W 080°03'0 0.0
2018-Jan-08 21:43N 26°43' W 080°03'0 0.0
2018-Jan-08 02:31N 26°43' W 080°03'0 0.0
2018-Jan-08 01:07N 26°43' W 080°03'0 0.0
2018-Jan-08 00:49N 26°43' W 080°03'0 0.0
2018-Jan-07 23:46N 26°43' W 080°03'0 0.0
2018-Jan-07 14:04N 26°43' W 080°03'0 0.0
2018-Jan-07 13:58N 26°43' W 080°03'0 0.0
2018-Jan-07 13:25N 26°43' W 080°03'0 0.0
2018-Jan-06 23:56N 26°43' W 080°03'0 0.0
2018-Jan-06 23:22N 26°43' W 080°03'0 0.0
2018-Jan-06 22:55N 26°43' W 080°03'0 0.0
2018-Jan-06 22:28N 26°43' W 080°03'0 0.0
2018-Jan-06 21:55N 26°43' W 080°03'0 0.0
2018-Jan-06 21:28N 26°43' W 080°03'0 0.0
2018-Jan-06 20:52N 26°43' W 080°03'0 0.0
2018-Jan-06 20:28N 26°43' W 080°03'0 0.0
2018-Jan-06 19:58N 26°43' W 080°03'0 0.0
2018-Jan-06 19:22N 26°43' W 080°03'2 4.5
2018-Jan-06 19:00N 26°45' W 080°03'3 5.9
2018-Jan-06 18:30N 26°48' W 080°03'0 0.9
2018-Jan-06 18:00N 26°48' W 080°03'2 5.0
2018-Jan-06 17:30N 26°46' W 080°03'3 1.0
2018-Jan-06 15:00N 26°43' W 080°03'0 0.0
2018-Jan-06 14:27N 26°43' W 080°03'0 0.0
2018-Jan-06 14:00N 26°43' W 080°03'0 0.0
2018-Jan-06 13:30N 26°43' W 080°03'0 0.0
2018-Jan-06 13:00N 26°43' W 080°03'0 0.0
2018-Jan-06 12:30N 26°43' W 080°03'0 0.0
2018-Jan-06 12:00N 26°43' W 080°03'0 0.0
2018-Jan-06 11:30N 26°43' W 080°03'0 0.0
2018-Jan-06 11:00N 26°43' W 080°03'0 0.0
2018-Jan-06 10:30N 26°43' W 080°03'0 0.0
2018-Jan-06 10:00N 26°43' W 080°03'0 0.0
2018-Jan-06 09:30N 26°43' W 080°03'0 0.0
2018-Jan-06 09:00N 26°43' W 080°03'0 0.0
2018-Jan-06 08:27N 26°43' W 080°03'0 0.0
2018-Jan-06 08:00N 26°43' W 080°03'0 0.0
2018-Jan-06 07:30N 26°43' W 080°03'0 0.0
2018-Jan-06 07:00N 26°43' W 080°03'0 0.0
2018-Jan-06 06:24N 26°43' W 080°03'0 0.0
2018-Jan-06 05:57N 26°43' W 080°03'0 0.0
2018-Jan-06 05:21N 26°43' W 080°03'0 0.0
2018-Jan-06 04:42N 26°43' W 080°03'0 0.0
2018-Jan-06 04:30N 26°43' W 080°03'0 0.0
2018-Jan-06 03:39N 26°43' W 080°03'0 0.0
2018-Jan-06 03:21N 26°43' W 080°03'0 0.0
2018-Jan-06 03:00N 26°43' W 080°03'0 0.0
2018-Jan-06 02:30N 26°43' W 080°03'0 0.0
2018-Jan-06 02:00N 26°43' W 080°03'0 0.0
2018-Jan-06 01:30N 26°43' W 080°03'0 0.0
2018-Jan-06 01:00N 26°43' W 080°03'0 0.0
2018-Jan-06 00:30N 26°43' W 080°03'0 0.0
2018-Jan-06 00:00N 26°43' W 080°03'0 0.0
2018-Jan-05 23:30N 26°43' W 080°03'0 0.0
2018-Jan-05 15:57N 26°43' W 080°03'0 0.0
2018-Jan-05 15:30N 26°43' W 080°03'0 0.0
2018-Jan-05 15:00N 26°43' W 080°03'0 0.0
2018-Jan-05 14:30N 26°43' W 080°03'0 0.0
2018-Jan-05 14:00N 26°43' W 080°03'0 0.0
2018-Jan-05 13:30N 26°43' W 080°03'0 0.0
2018-Jan-05 12:57N 26°43' W 080°03'0 0.0
2018-Jan-05 12:30N 26°43' W 080°03'0 0.0
2018-Jan-05 11:51N 26°43' W 080°03'0 0.0
2018-Jan-05 11:30N 26°43' W 080°03'0 0.0
2018-Jan-05 10:54N 26°43' W 080°03'0 0.0
2018-Jan-05 10:30N 26°43' W 080°03'0 0.0
2018-Jan-05 10:00N 26°43' W 080°03'0 0.0
2018-Jan-05 09:30N 26°43' W 080°03'0 0.0
2018-Jan-05 09:00N 26°43' W 080°03'0 0.0
2018-Jan-05 08:12N 26°43' W 080°03'0 0.0
2018-Jan-05 07:45N 26°43' W 080°03'0 0.0
2018-Jan-05 07:30N 26°43' W 080°03'0 0.0
2018-Jan-05 07:00N 26°43' W 080°03'0 0.0
2018-Jan-05 06:30N 26°43' W 080°03'0 0.0
2018-Jan-05 06:00N 26°43' W 080°03'0 0.0
2018-Jan-05 05:30N 26°43' W 080°03'0 0.0
2018-Jan-05 05:00N 26°43' W 080°03'0 0.0
2018-Jan-05 04:30N 26°43' W 080°03'0 0.0
2018-Jan-05 04:00N 26°43' W 080°03'0 0.0
2018-Jan-05 03:30N 26°43' W 080°03'0 0.0
2018-Jan-05 02:54N 26°43' W 080°03'0 0.0
2018-Jan-05 02:30N 26°43' W 080°03'0 0.0
2018-Jan-05 02:00N 26°43' W 080°03'0 0.0
2018-Jan-04 22:57N 26°43' W 080°03'0 0.0
2018-Jan-04 22:30N 26°43' W 080°03'0 0.0
2018-Jan-04 21:42N 26°43' W 080°03'0 0.0
2018-Jan-04 20:45N 26°43' W 080°03'0 0.0
2018-Jan-04 20:27N 26°43' W 080°03'0 0.0
2018-Jan-04 19:15N 26°43' W 080°03'0 0.0
2018-Jan-04 19:00N 26°43' W 080°03'0 0.0
2018-Jan-04 18:24N 26°43' W 080°03'0 0.0
2018-Jan-04 09:17N 26°43' W 080°03'0 0.0
2018-Jan-04 08:59N 26°43' W 080°03'0 0.0
2018-Jan-04 08:29N 26°43' W 080°03'0 0.0
2018-Jan-04 07:59N 26°43' W 080°03'0 0.0
2018-Jan-04 07:23N 26°43' W 080°03'0 0.0
2018-Jan-04 06:35N 26°43' W 080°03'0 0.0
2018-Jan-04 06:29N 26°43' W 080°03'0 0.0
2018-Jan-04 05:59N 26°43' W 080°03'0 0.0
2018-Jan-04 05:29N 26°43' W 080°03'0 0.0
2018-Jan-04 04:47N 26°43' W 080°03'0 0.0
2018-Jan-04 04:29N 26°43' W 080°03'0 0.0
2018-Jan-04 03:59N 26°43' W 080°03'0 0.0
2018-Jan-04 03:29N 26°43' W 080°03'0 0.0
2018-Jan-04 02:59N 26°43' W 080°03'0 0.0
2018-Jan-04 02:26N 26°43' W 080°03'0 0.0
2018-Jan-04 01:59N 26°43' W 080°03'0 0.0
2018-Jan-04 01:29N 26°43' W 080°03'0 0.0
2018-Jan-04 00:38N 26°43' W 080°03'0 0.0
2018-Jan-04 00:29N 26°43' W 080°03'0 0.0
2018-Jan-03 23:59N 26°43' W 080°03'0 0.0
2018-Jan-03 23:23N 26°43' W 080°03'0 0.0
2018-Jan-03 22:59N 26°43' W 080°03'0 0.0
2018-Jan-03 22:29N 26°43' W 080°03'0 0.0
2018-Jan-03 22:00N 26°43' W 080°03'0 0.0
2018-Jan-03 21:30N 26°43' W 080°03'0 0.0
2018-Jan-03 21:00N 26°43' W 080°03'0 0.0
2018-Jan-03 20:24N 26°43' W 080°03'0 0.0
2018-Jan-03 20:00N 26°43' W 080°03'0 0.0
2018-Jan-03 19:24N 26°43' W 080°03'0 0.0
2018-Jan-03 19:00N 26°43' W 080°03'0 0.0
2018-Jan-03 18:27N 26°43' W 080°03'0 0.0
2018-Jan-03 17:57N 26°43' W 080°03'0 0.0
2018-Jan-03 17:30N 26°43' W 080°03'0 0.0
2018-Jan-03 17:00N 26°43' W 080°03'0 0.0
2018-Jan-03 16:30N 26°43' W 080°03'0 0.0
2018-Jan-03 15:57N 26°43' W 080°03'0 0.0
2018-Jan-03 15:30N 26°43' W 080°03'0 0.0
2018-Jan-03 15:00N 26°43' W 080°03'0 0.0
2018-Jan-03 14:21N 26°43' W 080°03'0 0.0
2018-Jan-03 13:51N 26°43' W 080°03'0 0.0
2018-Jan-03 13:30N 26°43' W 080°03'0 0.0
2018-Jan-03 12:57N 26°43' W 080°03'0 0.0
2018-Jan-03 12:27N 26°43' W 080°03'0 0.0
2018-Jan-03 11:48N 26°43' W 080°03'0 0.0
2018-Jan-03 11:30N 26°43' W 080°03'0 0.0
2018-Jan-03 10:48N 26°43' W 080°03'0 0.0
2018-Jan-03 10:27N 26°43' W 080°03'0 0.0
2018-Jan-03 09:42N 26°43' W 080°03'0 0.0
2018-Jan-03 09:15N 26°43' W 080°03'0 0.0
2018-Jan-03 08:54N 26°43' W 080°03'0 0.0
2018-Jan-03 08:15N 26°43' W 080°03'0 0.0
2018-Jan-03 07:57N 26°43' W 080°03'0 0.0
2018-Jan-03 07:18N 26°43' W 080°03'0 0.0
2018-Jan-03 06:21N 26°43' W 080°03'0 0.0
2018-Jan-03 05:45N 26°43' W 080°03'0 0.0
2018-Jan-03 05:30N 26°43' W 080°03'0 0.0
2018-Jan-03 04:57N 26°43' W 080°03'0 0.0
2018-Jan-03 04:30N 26°43' W 080°03'0 0.0
2018-Jan-03 04:00N 26°43' W 080°03'0 0.0
2018-Jan-03 03:21N 26°43' W 080°03'0 0.0
2018-Jan-03 03:00N 26°43' W 080°03'0 0.0
2018-Jan-03 02:27N 26°43' W 080°03'0 0.0
2018-Jan-03 01:57N 26°43' W 080°03'0 0.0
2018-Jan-03 01:30N 26°43' W 080°03'0 0.0
2018-Jan-02 15:21N 26°43' W 080°03'0 0.0
2018-Jan-02 15:00N 26°43' W 080°03'0 0.0
2018-Jan-02 14:30N 26°43' W 080°03'0 0.0
2018-Jan-02 13:57N 26°43' W 080°03'0 0.0
2018-Jan-02 13:30N 26°43' W 080°03'0 0.0
2018-Jan-02 13:00N 26°43' W 080°03'0 0.0
2018-Jan-02 12:30N 26°43' W 080°03'0 0.0
2018-Jan-02 12:00N 26°43' W 080°03'0 0.0
2018-Jan-02 11:30N 26°43' W 080°03'0 0.0
2018-Jan-02 11:00N 26°43' W 080°03'0 0.0
2018-Jan-02 10:27N 26°43' W 080°03'0 0.0
2018-Jan-02 09:57N 26°43' W 080°03'0 0.0
2018-Jan-02 09:30N 26°43' W 080°03'0 0.0
2018-Jan-02 08:30N 26°43' W 080°03'0 0.0
2018-Jan-02 07:57N 26°43' W 080°03'0 0.0
2018-Jan-02 07:27N 26°43' W 080°03'0 0.0
2018-Jan-02 03:24N 26°43' W 080°03'0 0.0
2018-Jan-02 02:51N 26°43' W 080°03'0 0.0
2018-Jan-02 02:24N 26°43' W 080°03'0 0.0
2018-Jan-02 01:57N 26°43' W 080°03'0 0.0
2018-Jan-02 01:27N 26°43' W 080°03'0 0.0
2018-Jan-02 00:57N 26°43' W 080°03'0 0.0
2018-Jan-02 00:27N 26°43' W 080°03'0 0.0
2018-Jan-01 23:57N 26°43' W 080°03'0 0.0
2018-Jan-01 23:24N 26°43' W 080°03'0 0.0
2018-Jan-01 23:00N 26°43' W 080°03'0 0.0
2018-Jan-01 22:30N 26°43' W 080°03'0 0.0
2018-Jan-01 22:00N 26°43' W 080°03'0 0.0
2018-Jan-01 20:24N 26°43' W 080°03'0 0.0
2018-Jan-01 14:48N 26°43' W 080°03'0 0.0
2018-Jan-01 14:27N 26°43' W 080°03'0 0.0
2018-Jan-01 14:00N 26°43' W 080°03'0 0.0
2018-Jan-01 13:30N 26°43' W 080°03'0 0.0
2018-Jan-01 12:57N 26°43' W 080°03'0 0.0
2018-Jan-01 11:45N 26°43' W 080°03'0 0.0
2018-Jan-01 11:27N 26°43' W 080°03'0 0.0
2018-Jan-01 10:39N 26°43' W 080°03'0 0.0
2018-Jan-01 10:30N 26°43' W 080°03'0 0.0
2018-Jan-01 09:57N 26°43' W 080°03'0 0.0
2018-Jan-01 09:30N 26°43' W 080°03'0 0.0
2018-Jan-01 03:05N 26°43' W 080°03'0 0.0
2018-Jan-01 02:53N 26°43' W 080°03'0 0.0
2018-Jan-01 02:26N 26°43' W 080°03'0 0.0
2018-Jan-01 01:50N 26°43' W 080°03'0 0.0
2018-Jan-01 01:26N 26°43' W 080°03'0 0.0
2018-Jan-01 00:29N 26°43' W 080°03'0 0.0
2017-Dec-31 20:41N 26°43' W 080°03'0 0.0
2017-Dec-31 19:23N 26°43' W 080°03'0 0.0
2017-Dec-31 17:20N 26°43' W 080°03'0 0.0
2017-Dec-31 15:08N 26°43' W 080°03'0 0.0
2017-Dec-31 14:59N 26°43' W 080°03'0 0.0
2017-Dec-31 14:29N 26°43' W 080°03'0 0.0
2017-Dec-31 13:56N 26°43' W 080°03'0 0.0
2017-Dec-31 13:26N 26°43' W 080°03'0 0.0
2017-Dec-31 12:59N 26°43' W 080°03'0 0.0
2017-Dec-31 12:26N 26°43' W 080°03'0 0.0
2017-Dec-31 11:56N 26°43' W 080°03'0 0.0
2017-Dec-31 11:14N 26°43' W 080°03'0 0.0
2017-Dec-31 10:56N 26°43' W 080°03'0 0.0
2017-Dec-31 10:20N 26°43' W 080°03'0 0.0
2017-Dec-31 09:56N 26°43' W 080°03'0 0.0
2017-Dec-31 09:29N 26°43' W 080°03'0 0.0
2017-Dec-31 08:53N 26°43' W 080°03'0 0.0
2017-Dec-30 23:18N 26°43' W 080°03'0 0.0
2017-Dec-30 21:57N 26°43' W 080°03'0 0.0
2017-Dec-30 21:27N 26°43' W 080°03'0 0.0
2017-Dec-30 20:57N 26°43' W 080°03'0 0.0
2017-Dec-30 20:24N 26°43' W 080°03'0 0.0
2017-Dec-30 19:57N 26°43' W 080°03'0 0.0
2017-Dec-30 19:27N 26°43' W 080°03'0 0.0
2017-Dec-30 18:48N 26°43' W 080°03'0 0.0
2017-Dec-30 18:30N 26°43' W 080°03'0 0.0
2017-Dec-30 17:48N 26°43' W 080°03'0 0.0
2017-Dec-30 17:24N 26°43' W 080°03'0 0.0
2017-Dec-30 17:00N 26°43' W 080°03'  
Track history (hours):
 
Tides and Currents Weather Stations Pressure Air Temp Water Temp Dewpoint Dewpoint Depression Visibility Wind Speed Wind Dir Waves Ship Positions

Flying Lady

Owner: Recker, William J, Captiva, FL. More information available from US FCC via Universal Licensing System and Coast Guard Vessel Documentation Center.

Last reported at 2018-Jan-09 16:54 UTC. Time now 2018-Feb-24 22:11 UTC.
Position N 26°44' W 080°03'.
Warning: this ship's position is 46 days out of date.

Length 20 m.

Type: Pleasure craft. MMSI: 368009910.

Date/timePositionNaut miles runAvg speedWind from/ knotsBaromVisibWave heightAir tempDewpointWater temp
2018-Jan-09 16:54N 26°44' W 080°03'1 0.6
2018-Jan-09 14:52N 26°43' W 080°03'0 0.0
2018-Jan-08 21:43N 26°43' W 080°03'0 0.0
2018-Jan-08 02:31N 26°43' W 080°03'0 0.0
2018-Jan-08 01:07N 26°43' W 080°03'0 0.0
2018-Jan-08 00:49N 26°43' W 080°03'0 0.0
2018-Jan-07 23:46N 26°43' W 080°03'0 0.0
2018-Jan-07 14:04N 26°43' W 080°03'0 0.0
2018-Jan-07 13:58N 26°43' W 080°03'0 0.0
2018-Jan-07 13:25N 26°43' W 080°03'0 0.0
2018-Jan-06 23:56N 26°43' W 080°03'0 0.0
2018-Jan-06 23:22N 26°43' W 080°03'0 0.0
2018-Jan-06 22:55N 26°43' W 080°03'0 0.0
2018-Jan-06 22:28N 26°43' W 080°03'0 0.0
2018-Jan-06 21:55N 26°43' W 080°03'0 0.0
2018-Jan-06 21:28N 26°43' W 080°03'0 0.0
2018-Jan-06 20:52N 26°43' W 080°03'0 0.0
2018-Jan-06 20:28N 26°43' W 080°03'0 0.0
2018-Jan-06 19:58N 26°43' W 080°03'0 0.0
2018-Jan-06 19:22N 26°43' W 080°03'2 4.5
2018-Jan-06 19:00N 26°45' W 080°03'3 5.9
2018-Jan-06 18:30N 26°48' W 080°03'0 0.9
2018-Jan-06 18:00N 26°48' W 080°03'2 5.0
2018-Jan-06 17:30N 26°46' W 080°03'3 1.0
2018-Jan-06 15:00N 26°43' W 080°03'0 0.0
2018-Jan-06 14:27N 26°43' W 080°03'0 0.0
2018-Jan-06 14:00N 26°43' W 080°03'0 0.0
2018-Jan-06 13:30N 26°43' W 080°03'0 0.0
2018-Jan-06 13:00N 26°43' W 080°03'0 0.0
2018-Jan-06 12:30N 26°43' W 080°03'0 0.0
2018-Jan-06 12:00N 26°43' W 080°03'0 0.0
2018-Jan-06 11:30N 26°43' W 080°03'0 0.0
2018-Jan-06 11:00N 26°43' W 080°03'0 0.0
2018-Jan-06 10:30N 26°43' W 080°03'0 0.0
2018-Jan-06 10:00N 26°43' W 080°03'0 0.0
2018-Jan-06 09:30N 26°43' W 080°03'0 0.0
2018-Jan-06 09:00N 26°43' W 080°03'0 0.0
2018-Jan-06 08:27N 26°43' W 080°03'0 0.0
2018-Jan-06 08:00N 26°43' W 080°03'0 0.0
2018-Jan-06 07:30N 26°43' W 080°03'0 0.0
2018-Jan-06 07:00N 26°43' W 080°03'0 0.0
2018-Jan-06 06:24N 26°43' W 080°03'0 0.0
2018-Jan-06 05:57N 26°43' W 080°03'0 0.0
2018-Jan-06 05:21N 26°43' W 080°03'0 0.0
2018-Jan-06 04:42N 26°43' W 080°03'0 0.0
2018-Jan-06 04:30N 26°43' W 080°03'0 0.0
2018-Jan-06 03:39N 26°43' W 080°03'0 0.0
2018-Jan-06 03:21N 26°43' W 080°03'0 0.0
2018-Jan-06 03:00N 26°43' W 080°03'0 0.0
2018-Jan-06 02:30N 26°43' W 080°03'0 0.0
2018-Jan-06 02:00N 26°43' W 080°03'0 0.0
2018-Jan-06 01:30N 26°43' W 080°03'0 0.0
2018-Jan-06 01:00N 26°43' W 080°03'0 0.0
2018-Jan-06 00:30N 26°43' W 080°03'0 0.0
2018-Jan-06 00:00N 26°43' W 080°03'0 0.0
2018-Jan-05 23:30N 26°43' W 080°03'0 0.0
2018-Jan-05 15:57N 26°43' W 080°03'0 0.0
2018-Jan-05 15:30N 26°43' W 080°03'0 0.0
2018-Jan-05 15:00N 26°43' W 080°03'0 0.0
2018-Jan-05 14:30N 26°43' W 080°03'0 0.0
2018-Jan-05 14:00N 26°43' W 080°03'0 0.0
2018-Jan-05 13:30N 26°43' W 080°03'0 0.0
2018-Jan-05 12:57N 26°43' W 080°03'0 0.0
2018-Jan-05 12:30N 26°43' W 080°03'0 0.0
2018-Jan-05 11:51N 26°43' W 080°03'0 0.0
2018-Jan-05 11:30N 26°43' W 080°03'0 0.0
2018-Jan-05 10:54N 26°43' W 080°03'0 0.0
2018-Jan-05 10:30N 26°43' W 080°03'0 0.0
2018-Jan-05 10:00N 26°43' W 080°03'0 0.0
2018-Jan-05 09:30N 26°43' W 080°03'0 0.0
2018-Jan-05 09:00N 26°43' W 080°03'0 0.0
2018-Jan-05 08:12N 26°43' W 080°03'0 0.0
2018-Jan-05 07:45N 26°43' W 080°03'0 0.0
2018-Jan-05 07:30N 26°43' W 080°03'0 0.0
2018-Jan-05 07:00N 26°43' W 080°03'0 0.0
2018-Jan-05 06:30N 26°43' W 080°03'0 0.0
2018-Jan-05 06:00N 26°43' W 080°03'0 0.0
2018-Jan-05 05:30N 26°43' W 080°03'0 0.0
2018-Jan-05 05:00N 26°43' W 080°03'0 0.0
2018-Jan-05 04:30N 26°43' W 080°03'0 0.0
2018-Jan-05 04:00N 26°43' W 080°03'0 0.0
2018-Jan-05 03:30N 26°43' W 080°03'0 0.0
2018-Jan-05 02:54N 26°43' W 080°03'0 0.0
2018-Jan-05 02:30N 26°43' W 080°03'0 0.0
2018-Jan-05 02:00N 26°43' W 080°03'0 0.0
2018-Jan-04 22:57N 26°43' W 080°03'0 0.0
2018-Jan-04 22:30N 26°43' W 080°03'0 0.0
2018-Jan-04 21:42N 26°43' W 080°03'0 0.0
2018-Jan-04 20:45N 26°43' W 080°03'0 0.0
2018-Jan-04 20:27N 26°43' W 080°03'0 0.0
2018-Jan-04 19:15N 26°43' W 080°03'0 0.0
2018-Jan-04 19:00N 26°43' W 080°03'0 0.0
2018-Jan-04 18:24N 26°43' W 080°03'0 0.0
2018-Jan-04 09:17N 26°43' W 080°03'0 0.0
2018-Jan-04 08:59N 26°43' W 080°03'0 0.0
2018-Jan-04 08:29N 26°43' W 080°03'0 0.0
2018-Jan-04 07:59N 26°43' W 080°03'0 0.0
2018-Jan-04 07:23N 26°43' W 080°03'0 0.0
2018-Jan-04 06:35N 26°43' W 080°03'0 0.0
2018-Jan-04 06:29N 26°43' W 080°03'0 0.0
2018-Jan-04 05:59N 26°43' W 080°03'0 0.0
2018-Jan-04 05:29N 26°43' W 080°03'0 0.0
2018-Jan-04 04:47N 26°43' W 080°03'0 0.0
2018-Jan-04 04:29N 26°43' W 080°03'0 0.0
2018-Jan-04 03:59N 26°43' W 080°03'0 0.0
2018-Jan-04 03:29N 26°43' W 080°03'0 0.0
2018-Jan-04 02:59N 26°43' W 080°03'0 0.0
2018-Jan-04 02:26N 26°43' W 080°03'0 0.0
2018-Jan-04 01:59N 26°43' W 080°03'0 0.0
2018-Jan-04 01:29N 26°43' W 080°03'0 0.0
2018-Jan-04 00:38N 26°43' W 080°03'0 0.0
2018-Jan-04 00:29N 26°43' W 080°03'0 0.0
2018-Jan-03 23:59N 26°43' W 080°03'0 0.0
2018-Jan-03 23:23N 26°43' W 080°03'0 0.0
2018-Jan-03 22:59N 26°43' W 080°03'0 0.0
2018-Jan-03 22:29N 26°43' W 080°03'0 0.0
2018-Jan-03 22:00N 26°43' W 080°03'0 0.0
2018-Jan-03 21:30N 26°43' W 080°03'0 0.0
2018-Jan-03 21:00N 26°43' W 080°03'0 0.0
2018-Jan-03 20:24N 26°43' W 080°03'0 0.0
2018-Jan-03 20:00N 26°43' W 080°03'0 0.0
2018-Jan-03 19:24N 26°43' W 080°03'0 0.0
2018-Jan-03 19:00N 26°43' W 080°03'0 0.0
2018-Jan-03 18:27N 26°43' W 080°03'0 0.0
2018-Jan-03 17:57N 26°43' W 080°03'0 0.0
2018-Jan-03 17:30N 26°43' W 080°03'0 0.0
2018-Jan-03 17:00N 26°43' W 080°03'0 0.0
2018-Jan-03 16:30N 26°43' W 080°03'0 0.0
2018-Jan-03 15:57N 26°43' W 080°03'0 0.0
2018-Jan-03 15:30N 26°43' W 080°03'0 0.0
2018-Jan-03 15:00N 26°43' W 080°03'0 0.0
2018-Jan-03 14:21N 26°43' W 080°03'0 0.0
2018-Jan-03 13:51N 26°43' W 080°03'0 0.0
2018-Jan-03 13:30N 26°43' W 080°03'0 0.0
2018-Jan-03 12:57N 26°43' W 080°03'0 0.0
2018-Jan-03 12:27N 26°43' W 080°03'0 0.0
2018-Jan-03 11:48N 26°43' W 080°03'0 0.0
2018-Jan-03 11:30N 26°43' W 080°03'0 0.0
2018-Jan-03 10:48N 26°43' W 080°03'0 0.0
2018-Jan-03 10:27N 26°43' W 080°03'0 0.0
2018-Jan-03 09:42N 26°43' W 080°03'0 0.0
2018-Jan-03 09:15N 26°43' W 080°03'0 0.0
2018-Jan-03 08:54N 26°43' W 080°03'0 0.0
2018-Jan-03 08:15N 26°43' W 080°03'0 0.0
2018-Jan-03 07:57N 26°43' W 080°03'0 0.0
2018-Jan-03 07:18N 26°43' W 080°03'0 0.0
2018-Jan-03 06:21N 26°43' W 080°03'0 0.0
2018-Jan-03 05:45N 26°43' W 080°03'0 0.0
2018-Jan-03 05:30N 26°43' W 080°03'0 0.0
2018-Jan-03 04:57N 26°43' W 080°03'0 0.0
2018-Jan-03 04:30N 26°43' W 080°03'0 0.0
2018-Jan-03 04:00N 26°43' W 080°03'0 0.0
2018-Jan-03 03:21N 26°43' W 080°03'0 0.0
2018-Jan-03 03:00N 26°43' W 080°03'0 0.0
2018-Jan-03 02:27N 26°43' W 080°03'0 0.0
2018-Jan-03 01:57N 26°43' W 080°03'0 0.0
2018-Jan-03 01:30N 26°43' W 080°03'0 0.0
2018-Jan-02 15:21N 26°43' W 080°03'0 0.0
2018-Jan-02 15:00N 26°43' W 080°03'0 0.0
2018-Jan-02 14:30N 26°43' W 080°03'0 0.0
2018-Jan-02 13:57N 26°43' W 080°03'0 0.0
2018-Jan-02 13:30N 26°43' W 080°03'0 0.0
2018-Jan-02 13:00N 26°43' W 080°03'0 0.0
2018-Jan-02 12:30N 26°43' W 080°03'0 0.0
2018-Jan-02 12:00N 26°43' W 080°03'0 0.0
2018-Jan-02 11:30N 26°43' W 080°03'0 0.0
2018-Jan-02 11:00N 26°43' W 080°03'0 0.0
2018-Jan-02 10:27N 26°43' W 080°03'0 0.0
2018-Jan-02 09:57N 26°43' W 080°03'0 0.0
2018-Jan-02 09:30N 26°43' W 080°03'0 0.0
2018-Jan-02 08:30N 26°43' W 080°03'0 0.0
2018-Jan-02 07:57N 26°43' W 080°03'0 0.0
2018-Jan-02 07:27N 26°43' W 080°03'0 0.0
2018-Jan-02 03:24N 26°43' W 080°03'0 0.0
2018-Jan-02 02:51N 26°43' W 080°03'0 0.0
2018-Jan-02 02:24N 26°43' W 080°03'0 0.0
2018-Jan-02 01:57N 26°43' W 080°03'0 0.0
2018-Jan-02 01:27N 26°43' W 080°03'0 0.0
2018-Jan-02 00:57N 26°43' W 080°03'0 0.0
2018-Jan-02 00:27N 26°43' W 080°03'0 0.0
2018-Jan-01 23:57N 26°43' W 080°03'0 0.0
2018-Jan-01 23:24N 26°43' W 080°03'0 0.0
2018-Jan-01 23:00N 26°43' W 080°03'0 0.0
2018-Jan-01 22:30N 26°43' W 080°03'0 0.0
2018-Jan-01 22:00N 26°43' W 080°03'0 0.0
2018-Jan-01 20:24N 26°43' W 080°03'0 0.0
2018-Jan-01 14:48N 26°43' W 080°03'0 0.0
2018-Jan-01 14:27N 26°43' W 080°03'0 0.0
2018-Jan-01 14:00N 26°43' W 080°03'0 0.0
2018-Jan-01 13:30N 26°43' W 080°03'0 0.0
2018-Jan-01 12:57N 26°43' W 080°03'0 0.0
2018-Jan-01 11:45N 26°43' W 080°03'0 0.0
2018-Jan-01 11:27N 26°43' W 080°03'0 0.0
2018-Jan-01 10:39N 26°43' W 080°03'0 0.0
2018-Jan-01 10:30N 26°43' W 080°03'0 0.0
2018-Jan-01 09:57N 26°43' W 080°03'0 0.0
2018-Jan-01 09:30N 26°43' W 080°03'0 0.0
2018-Jan-01 03:05N 26°43' W 080°03'0 0.0
2018-Jan-01 02:53N 26°43' W 080°03'0 0.0
2018-Jan-01 02:26N 26°43' W 080°03'0 0.0
2018-Jan-01 01:50N 26°43' W 080°03'0 0.0
2018-Jan-01 01:26N 26°43' W 080°03'0 0.0
2018-Jan-01 00:29N 26°43' W 080°03'0 0.0
2017-Dec-31 20:41N 26°43' W 080°03'0 0.0
2017-Dec-31 19:23N 26°43' W 080°03'0 0.0
2017-Dec-31 17:20N 26°43' W 080°03'0 0.0
2017-Dec-31 15:08N 26°43' W 080°03'0 0.0
2017-Dec-31 14:59N 26°43' W 080°03'0 0.0
2017-Dec-31 14:29N 26°43' W 080°03'0 0.0
2017-Dec-31 13:56N 26°43' W 080°03'0 0.0
2017-Dec-31 13:26N 26°43' W 080°03'0 0.0
2017-Dec-31 12:59N 26°43' W 080°03'0 0.0
2017-Dec-31 12:26N 26°43' W 080°03'0 0.0
2017-Dec-31 11:56N 26°43' W 080°03'0 0.0
2017-Dec-31 11:14N 26°43' W 080°03'0 0.0
2017-Dec-31 10:56N 26°43' W 080°03'0 0.0
2017-Dec-31 10:20N 26°43' W 080°03'0 0.0
2017-Dec-31 09:56N 26°43' W 080°03'0 0.0
2017-Dec-31 09:29N 26°43' W 080°03'0 0.0
2017-Dec-31 08:53N 26°43' W 080°03'0 0.0
2017-Dec-30 23:18N 26°43' W 080°03'0 0.0
2017-Dec-30 21:57N 26°43' W 080°03'0 0.0
2017-Dec-30 21:27N 26°43' W 080°03'0 0.0
2017-Dec-30 20:57N 26°43' W 080°03'0 0.0
2017-Dec-30 20:24N 26°43' W 080°03'0 0.0
2017-Dec-30 19:57N 26°43' W 080°03'0 0.0
2017-Dec-30 19:27N 26°43' W 080°03'0 0.0
2017-Dec-30 18:48N 26°43' W 080°03'0 0.0
2017-Dec-30 18:30N 26°43' W 080°03'0 0.0
2017-Dec-30 17:48N 26°43' W 080°03'0 0.0
2017-Dec-30 17:24N 26°43' W 080°03'0 0.0
2017-Dec-30 17:00N 26°43' W 080°03'  

Dump ship's entire track history